createdAt,value
2019-06-26T10:49:02.186Z,32.50
2019-06-26T10:51:33.817Z,32.80
2019-06-26T10:54:05.429Z,33.00
2019-06-26T10:56:36.686Z,33.10
2019-06-26T10:59:07.728Z,33.10
2019-06-26T11:01:39.106Z,33.30
2019-06-26T11:04:10.210Z,33.40
2019-06-26T11:06:41.320Z,33.40
2019-06-26T11:09:12.339Z,33.70
2019-06-26T11:11:43.815Z,33.80
2019-06-26T11:14:14.848Z,34.10
2019-06-26T11:16:45.995Z,34.20
2019-06-26T11:19:17.018Z,34.40
2019-06-26T11:21:48.215Z,34.40
2019-06-26T11:24:20.237Z,34.40
2019-06-26T11:26:51.551Z,34.50
2019-06-26T11:29:22.568Z,34.70
2019-06-26T11:31:53.947Z,34.80
2019-06-26T11:34:25.003Z,35.00
2019-06-26T11:37:03.741Z,35.10
2019-06-26T11:39:28.962Z,35.30
2019-06-26T11:42:00.263Z,35.00
2019-06-26T11:44:32.510Z,35.10
2019-06-26T11:47:03.787Z,35.40
2019-06-26T11:49:34.845Z,35.10
2019-06-26T11:52:06.185Z,35.10
2019-06-26T11:54:37.196Z,35.20
2019-06-26T11:57:08.471Z,35.20
2019-06-26T11:59:39.495Z,35.00
2019-06-26T12:02:10.757Z,35.30
2019-06-26T12:04:41.779Z,35.20
2019-06-26T12:07:13.043Z,35.20
2019-06-26T12:09:44.078Z,35.20
2019-06-26T12:12:15.433Z,35.20
2019-06-26T12:14:46.507Z,35.30
2019-06-26T12:17:17.829Z,35.40
2019-06-26T12:19:48.889Z,35.50
2019-06-26T12:22:20.222Z,35.40
2019-06-26T12:25:03.187Z,35.60
2019-06-26T12:27:34.390Z,35.90
2019-06-26T12:30:06.333Z,36.00
2019-06-26T12:32:42.433Z,36.10
2019-06-26T12:35:10.457Z,36.30
2019-06-26T12:37:41.681Z,36.20
2019-06-26T12:40:12.830Z,36.50
2019-06-26T12:42:44.125Z,36.30
2019-06-26T12:45:15.462Z,36.50
2019-06-26T12:47:46.725Z,36.60
2019-06-26T12:50:34.504Z,36.70
2019-06-26T12:52:55.317Z,36.90
2019-06-26T12:55:26.363Z,36.80
2019-06-26T12:58:11.722Z,36.80
2019-06-26T13:00:30.481Z,36.80
2019-06-26T13:03:01.883Z,36.80
2019-06-26T13:05:32.975Z,36.90
2019-06-26T13:08:04.187Z,36.90
2019-06-26T13:10:48.879Z,36.70
2019-06-26T13:13:08.513Z,36.60
2019-06-26T13:15:40.726Z,36.50
2019-06-26T13:18:12.074Z,36.50
2019-06-26T13:20:52.605Z,36.50
2019-06-26T13:23:16.060Z,36.70
2019-06-26T13:25:47.075Z,36.90
2019-06-26T13:28:18.212Z,37.10
2019-06-26T13:30:53.000Z,37.40
2019-06-26T13:33:34.268Z,37.70
2019-06-26T13:36:05.569Z,37.90
2019-06-26T13:38:36.869Z,38.00
2019-06-26T13:41:07.970Z,37.70
2019-06-26T13:43:39.253Z,37.50
2019-06-26T13:46:10.310Z,37.30
2019-06-26T13:48:41.502Z,37.30
2019-06-26T13:51:12.544Z,37.30
2019-06-26T13:53:43.833Z,37.40
2019-06-26T13:56:14.939Z,37.40
2019-06-26T13:58:46.180Z,37.80
2019-06-26T14:01:17.239Z,38.10
2019-06-26T14:03:48.501Z,38.00
2019-06-26T14:06:19.572Z,38.00
2019-06-26T14:08:50.755Z,38.00
2019-06-26T14:11:21.816Z,38.20
2019-06-26T14:13:53.062Z,38.40
2019-06-26T14:16:24.097Z,38.50
2019-06-26T14:18:55.325Z,38.50
2019-06-26T14:21:26.661Z,38.60
2019-06-26T14:23:57.978Z,38.80
2019-06-26T14:26:29.031Z,38.40
2019-06-26T14:29:00.285Z,38.50
2019-06-26T14:31:31.323Z,38.60
2019-06-26T14:34:02.628Z,38.90
2019-06-26T14:36:33.725Z,39.10
2019-06-26T14:39:07.701Z,39.20
2019-06-26T14:41:39.411Z,39.00
2019-06-26T14:44:11.843Z,39.10
2019-06-26T14:46:42.960Z,39.10
2019-06-26T14:49:14.258Z,39.10
2019-06-26T14:51:47.662Z,39.30
2019-06-26T14:54:18.265Z,39.00
2019-06-26T14:56:49.304Z,39.00
2019-06-26T14:59:20.660Z,39.30
2019-06-26T15:01:51.748Z,39.40
2019-06-26T15:04:22.986Z,39.30
2019-06-26T15:06:54.064Z,39.10
2019-06-26T15:09:25.175Z,39.00
2019-06-26T15:11:56.228Z,39.20
2019-06-26T15:14:27.427Z,39.10
2019-06-26T15:16:58.468Z,39.10
2019-06-26T15:19:29.716Z,38.90
2019-06-26T15:22:00.730Z,38.80
2019-06-26T15:24:32.007Z,39.10
2019-06-26T15:27:03.110Z,39.30
2019-06-26T15:29:34.399Z,39.20
2019-06-26T15:32:05.480Z,38.90
2019-06-26T15:34:36.715Z,39.10
2019-06-26T15:37:07.746Z,39.20
2019-06-26T15:39:39.087Z,39.20
2019-06-26T15:42:10.162Z,39.30
2019-06-26T15:44:41.370Z,39.40
2019-06-26T15:47:12.531Z,39.60
2019-06-26T15:49:43.871Z,39.60
2019-06-26T15:52:15.670Z,39.60
2019-06-26T15:54:47.299Z,39.60
2019-06-26T15:57:18.333Z,39.70
2019-06-26T15:59:49.455Z,39.50
2019-06-26T16:02:39.576Z,39.30
2019-06-26T16:05:11.216Z,39.20
2019-06-26T16:07:42.513Z,39.40
2019-06-26T16:10:14.356Z,39.40
2019-06-26T16:12:45.454Z,39.30
2019-06-26T16:15:17.400Z,39.30
2019-06-26T16:18:05.734Z,39.20
2019-06-26T16:20:37.024Z,39.20
2019-06-26T16:23:08.119Z,39.30
2019-06-26T16:25:39.720Z,39.20
2019-06-26T16:28:10.868Z,39.20
2019-06-26T16:30:42.241Z,39.00
2019-06-26T16:33:13.299Z,38.80
2019-06-26T16:35:44.728Z,38.70
2019-06-26T16:38:15.782Z,38.50
2019-06-26T16:40:47.008Z,38.50
2019-06-26T16:43:18.069Z,38.30
2019-06-26T16:45:49.233Z,38.30
2019-06-26T16:48:23.278Z,38.20
2019-06-26T16:50:54.551Z,38.10
2019-06-26T16:53:25.620Z,38.00
2019-06-26T16:55:56.944Z,38.00
2019-06-26T16:58:28.013Z,37.80
2019-06-26T17:00:59.333Z,37.80
2019-06-26T17:03:30.543Z,37.60
2019-06-26T17:06:01.686Z,37.60
2019-06-26T17:08:32.777Z,37.50
2019-06-26T17:11:04.131Z,37.40
2019-06-26T17:13:35.191Z,37.30
2019-06-26T17:16:06.610Z,37.20
2019-06-26T17:18:37.692Z,37.10
2019-06-26T17:21:09.011Z,37.00
2019-06-26T17:23:40.072Z,36.90
2019-06-26T17:26:11.300Z,36.90
2019-06-26T17:28:42.379Z,36.80
2019-06-26T17:31:13.588Z,36.80
2019-06-26T17:33:45.498Z,36.50
2019-06-26T17:36:16.804Z,36.40
2019-06-26T17:38:47.876Z,36.20
2019-06-26T17:41:19.200Z,36.10
2019-06-26T17:43:50.249Z,36.00
2019-06-26T17:46:21.481Z,36.00
2019-06-26T17:48:52.618Z,35.80
2019-06-26T17:51:23.992Z,35.80
2019-06-26T17:53:55.165Z,35.60
2019-06-26T17:56:26.673Z,35.50
2019-06-26T17:58:57.988Z,35.40
2019-06-26T18:01:30.170Z,35.20
2019-06-26T18:04:01.290Z,35.10
2019-06-26T18:06:32.687Z,35.00
2019-06-26T18:09:04.823Z,34.90
2019-06-26T18:11:36.516Z,34.80
2019-06-26T18:14:07.616Z,34.80
2019-06-26T18:16:39.103Z,34.70
2019-06-26T18:19:21.983Z,34.60
2019-06-26T18:21:53.395Z,34.40
2019-06-26T18:24:24.539Z,34.00
2019-06-26T18:26:55.800Z,33.90
2019-06-26T18:29:26.918Z,33.80
2019-06-26T18:31:58.269Z,33.80
2019-06-26T18:34:29.372Z,33.60
2019-06-26T18:37:00.562Z,33.50
2019-06-26T18:39:31.670Z,33.00
2019-06-26T18:42:03.051Z,32.80
2019-06-26T18:44:34.112Z,32.70
2019-06-26T18:47:05.267Z,32.40
2019-06-26T18:49:36.408Z,32.20
2019-06-26T18:52:07.992Z,32.00
2019-06-26T18:54:39.272Z,31.90
2019-06-26T18:57:11.879Z,31.70
2019-06-26T18:59:42.938Z,31.50
2019-06-26T19:02:14.266Z,31.40
2019-06-26T19:04:45.334Z,31.30
2019-06-26T19:07:16.483Z,31.20
2019-06-26T19:09:47.579Z,30.90
2019-06-26T19:12:18.775Z,30.70
2019-06-26T19:14:51.116Z,30.60
2019-06-26T19:17:22.381Z,30.50
2019-06-26T19:19:53.401Z,30.30
2019-06-26T19:22:24.642Z,30.20
2019-06-26T19:24:55.689Z,29.90
2019-06-26T19:27:26.826Z,29.80
2019-06-26T19:29:57.936Z,29.80
2019-06-26T19:32:29.199Z,29.70
2019-06-26T19:35:08.014Z,29.60
2019-06-26T19:37:33.354Z,29.50
2019-06-26T19:40:08.264Z,29.40
2019-06-26T19:42:38.108Z,29.30
2019-06-26T19:45:09.780Z,29.10
2019-06-26T19:47:40.944Z,29.10
2019-06-26T19:50:14.234Z,29.00
2019-06-26T19:52:45.453Z,29.00
2019-06-26T19:55:16.553Z,28.90
2019-06-26T19:57:47.665Z,28.70
2019-06-26T20:00:19.517Z,28.40
2019-06-26T20:02:50.667Z,28.30
2019-06-26T20:05:21.926Z,28.30
2019-06-26T20:07:53.136Z,28.20
2019-06-26T20:10:24.392Z,28.40
2019-06-26T20:12:55.599Z,28.20
2019-06-26T20:15:26.737Z,28.00
2019-06-26T20:17:58.002Z,28.00
2019-06-26T20:20:29.136Z,27.90
2019-06-26T20:23:00.432Z,28.00
2019-06-26T20:25:31.679Z,28.00
2019-06-26T20:28:02.918Z,27.90
2019-06-26T20:30:34.539Z,27.70
2019-06-26T20:33:05.808Z,27.60
2019-06-26T20:35:38.906Z,27.50
2019-06-26T20:38:09.758Z,27.60
2019-06-26T20:40:40.800Z,27.50
2019-06-26T20:43:13.480Z,27.40
2019-06-26T20:45:44.638Z,27.30
2019-06-26T20:48:15.969Z,27.30
2019-06-26T20:50:47.019Z,27.30
2019-06-26T20:53:18.350Z,27.30
2019-06-26T20:55:49.425Z,27.20
2019-06-26T20:58:20.688Z,27.10
2019-06-26T21:00:51.729Z,27.00
2019-06-26T21:03:23.054Z,26.90
2019-06-26T21:05:54.086Z,26.90
2019-06-26T21:08:25.429Z,26.80
2019-06-26T21:10:56.500Z,26.70
2019-06-26T21:13:28.263Z,26.70
2019-06-26T21:15:59.415Z,26.70
2019-06-26T21:18:30.785Z,26.60
2019-06-26T21:21:01.826Z,26.50
2019-06-26T21:23:33.214Z,26.50
2019-06-26T21:26:04.335Z,26.40
2019-06-26T21:28:35.716Z,26.40
2019-06-26T21:31:06.745Z,26.30
2019-06-26T21:33:38.004Z,26.20
2019-06-26T21:36:09.107Z,26.10
2019-06-26T21:38:40.496Z,26.20
2019-06-26T21:41:11.494Z,26.10
2019-06-26T21:43:42.796Z,26.00
2019-06-26T21:46:13.825Z,26.00
2019-06-26T21:48:45.092Z,26.00
2019-06-26T21:51:16.115Z,26.00
2019-06-26T21:53:47.365Z,26.00
2019-06-26T21:56:36.227Z,26.00
2019-06-26T21:59:25.491Z,25.90
2019-06-26T22:02:14.608Z,25.90
2019-06-26T22:04:55.948Z,25.80
2019-06-26T22:07:31.690Z,25.80
2019-06-26T22:10:06.117Z,25.80
2019-06-26T22:12:38.771Z,25.80
2019-06-26T22:15:10.559Z,25.80
2019-06-26T22:17:41.966Z,25.90
2019-06-26T22:20:14.396Z,25.80
2019-06-26T22:22:45.456Z,25.70
2019-06-26T22:25:16.885Z,25.60
2019-06-26T22:27:48.244Z,25.40
2019-06-26T22:30:20.248Z,25.20
2019-06-26T22:32:51.308Z,25.20
2019-06-26T22:35:22.597Z,25.20
2019-06-26T22:37:53.638Z,25.10
2019-06-26T22:40:24.872Z,25.10
2019-06-26T22:42:55.923Z,25.10
2019-06-26T22:45:27.209Z,25.00
2019-06-26T22:47:58.273Z,25.00
2019-06-26T22:50:29.660Z,24.90
2019-06-26T22:53:00.823Z,24.80
2019-06-26T22:55:31.937Z,24.80
2019-06-26T22:58:02.989Z,24.70
2019-06-26T23:00:34.314Z,24.70
2019-06-26T23:03:05.564Z,24.60
2019-06-26T23:05:36.858Z,24.60
2019-06-26T23:08:07.987Z,24.70
2019-06-26T23:10:39.217Z,24.40
2019-06-26T23:13:10.245Z,24.30
2019-06-26T23:15:41.449Z,24.40
2019-06-26T23:18:25.916Z,24.40
2019-06-26T23:20:57.222Z,24.40
2019-06-26T23:23:28.255Z,24.40
2019-06-26T23:25:59.516Z,24.30
2019-06-26T23:28:30.545Z,24.30
2019-06-26T23:31:01.906Z,24.30
2019-06-26T23:33:51.993Z,24.20
2019-06-26T23:36:23.349Z,24.10
2019-06-26T23:38:55.335Z,24.00
2019-06-26T23:41:26.565Z,24.00
2019-06-26T23:43:57.598Z,24.00
2019-06-26T23:46:28.848Z,24.10
2019-06-26T23:48:59.870Z,24.10
2019-06-26T23:51:31.153Z,24.00
2019-06-26T23:54:02.227Z,23.90
2019-06-26T23:56:40.454Z,23.80
2019-06-26T23:59:06.320Z,23.80
